sensor_id;sensor_type;location;lat;lon;timestamp;pressure;altitude;pressure_sealevel;temperature;humidity
15007;BME280;7599;50.748;13.142;2024-01-07T00:01:46;95110.31;;;18.12;45.70
15007;BME280;7599;50.748;13.142;2024-01-07T00:04:50;95097.81;;;18.00;45.89
15007;BME280;7599;50.748;13.142;2024-01-07T00:11:32;95102.44;;;17.96;46.12
15007;BME280;7599;50.748;13.142;2024-01-07T00:14:47;95113.31;;;17.96;46.40
15007;BME280;7599;50.748;13.142;2024-01-07T00:17:50;95113.28;;;17.85;46.35
15007;BME280;7599;50.748;13.142;2024-01-07T00:21:00;95117.94;;;17.88;46.19
15007;BME280;7599;50.748;13.142;2024-01-07T00:24:07;95125.72;;;17.90;46.28
15007;BME280;7599;50.748;13.142;2024-01-07T00:27:10;95112.88;;;17.83;46.53
15007;BME280;7599;50.748;13.142;2024-01-07T00:30:13;95127.22;;;17.83;46.71
15007;BME280;7599;50.748;13.142;2024-01-07T00:33:16;95121.78;;;17.80;46.63
15007;BME280;7599;50.748;13.142;2024-01-07T00:36:21;95132.66;;;17.76;46.29
15007;BME280;7599;50.748;13.142;2024-01-07T00:39:24;95131.06;;;17.75;46.94
15007;BME280;7599;50.748;13.142;2024-01-07T00:42:27;95122.06;;;17.71;46.79
15007;BME280;7599;50.748;13.142;2024-01-07T00:49:09;95131.00;;;17.68;46.50
15007;BME280;7599;50.748;13.142;2024-01-07T00:52:42;95130.56;;;17.59;46.81
15007;BME280;7599;50.748;13.142;2024-01-07T00:55:47;95135.59;;;17.61;46.81
15007;BME280;7599;50.748;13.142;2024-01-07T00:58:51;95141.00;;;17.57;47.32
15007;BME280;7599;50.748;13.142;2024-01-07T01:01:54;95139.81;;;17.51;46.92
15007;BME280;7599;50.748;13.142;2024-01-07T01:04:58;95148.31;;;17.49;47.31
15007;BME280;7599;50.748;13.142;2024-01-07T01:08:17;95135.09;;;17.44;47.22
15007;BME280;7599;50.748;13.142;2024-01-07T01:11:20;95153.75;;;17.46;47.46
15007;BME280;7599;50.748;13.142;2024-01-07T01:14:23;95156.84;;;17.44;47.52
15007;BME280;7599;50.748;13.142;2024-01-07T01:17:26;95155.22;;;17.36;47.18
15007;BME280;7599;50.748;13.142;2024-01-07T01:20:28;95154.06;;;17.37;47.45
15007;BME280;7599;50.748;13.142;2024-01-07T01:23:52;95164.56;;;17.39;47.24
15007;BME280;7599;50.748;13.142;2024-01-07T01:26:55;95168.00;;;17.36;47.53
15007;BME280;7599;50.748;13.142;2024-01-07T01:30:18;95169.53;;;17.29;47.34
15007;BME280;7599;50.748;13.142;2024-01-07T01:33:32;95167.56;;;17.26;47.72
15007;BME280;7599;50.748;13.142;2024-01-07T01:36:58;95162.47;;;17.21;47.49
15007;BME280;7599;50.748;13.142;2024-01-07T01:40:56;95173.41;;;17.28;47.44
15007;BME280;7599;50.748;13.142;2024-01-07T01:44:36;95162.88;;;17.23;47.39
15007;BME280;7599;50.748;13.142;2024-01-07T01:47:39;95180.13;;;17.42;46.92
15007;BME280;7599;50.748;13.142;2024-01-07T01:50:42;95168.84;;;17.43;46.82
15007;BME280;7599;50.748;13.142;2024-01-07T01:53:55;95181.00;;;17.56;46.68
15007;BME280;7599;50.748;13.142;2024-01-07T01:57:16;95182.53;;;17.57;46.59
15007;BME280;7599;50.748;13.142;2024-01-07T02:00:22;95179.47;;;17.63;46.39
15007;BME280;7599;50.748;13.142;2024-01-07T02:03:25;95193.16;;;17.73;46.33
15007;BME280;7599;50.748;13.142;2024-01-07T02:06:28;95188.91;;;17.76;46.23
15007;BME280;7599;50.748;13.142;2024-01-07T02:09:31;95188.16;;;17.79;46.01
15007;BME280;7599;50.748;13.142;2024-01-07T02:12:58;95199.13;;;17.90;46.15
15007;BME280;7599;50.748;13.142;2024-01-07T02:16:16;95194.81;;;17.89;46.19
15007;BME280;7599;50.748;13.142;2024-01-07T02:19:34;95202.69;;;18.01;46.24
15007;BME280;7599;50.748;13.142;2024-01-07T02:23:00;95192.56;;;17.98;46.01
15007;BME280;7599;50.748;13.142;2024-01-07T02:26:16;95205.47;;;18.08;45.72
15007;BME280;7599;50.748;13.142;2024-01-07T02:29:18;95196.13;;;18.09;45.69
15007;BME280;7599;50.748;13.142;2024-01-07T02:32:33;95207.06;;;18.16;45.96
15007;BME280;7599;50.748;13.142;2024-01-07T02:35:53;95206.28;;;18.19;45.61
15007;BME280;7599;50.748;13.142;2024-01-07T02:39:09;95207.09;;;18.23;45.75
15007;BME280;7599;50.748;13.142;2024-01-07T02:42:39;95209.47;;;18.28;45.57
15007;BME280;7599;50.748;13.142;2024-01-07T02:46:36;95224.66;;;18.33;45.84
15007;BME280;7599;50.748;13.142;2024-01-07T02:49:53;95218.81;;;18.34;45.76
15007;BME280;7599;50.748;13.142;2024-01-07T02:52:56;95218.81;;;18.34;45.48
15007;BME280;7599;50.748;13.142;2024-01-07T02:56:00;95233.25;;;18.42;45.26
15007;BME280;7599;50.748;13.142;2024-01-07T02:59:10;95230.91;;;18.44;45.48
15007;BME280;7599;50.748;13.142;2024-01-07T03:02:28;95228.59;;;18.46;45.53
15007;BME280;7599;50.748;13.142;2024-01-07T03:05:30;95234.03;;;18.50;45.37
15007;BME280;7599;50.748;13.142;2024-01-07T03:08:35;95235.22;;;18.52;45.09
15007;BME280;7599;50.748;13.142;2024-01-07T03:11:38;95248.06;;;18.55;44.97
15007;BME280;7599;50.748;13.142;2024-01-07T03:14:43;95240.72;;;18.59;45.29
15007;BME280;7599;50.748;13.142;2024-01-07T03:17:50;95239.94;;;18.59;44.88
15007;BME280;7599;50.748;13.142;2024-01-07T03:20:54;95241.50;;;18.64;45.01
15007;BME280;7599;50.748;13.142;2024-01-07T03:24:16;95237.63;;;18.65;45.26
15007;BME280;7599;50.748;13.142;2024-01-07T03:27:36;95236.50;;;18.69;45.34
15007;BME280;7599;50.748;13.142;2024-01-07T03:30:44;95233.38;;;18.71;45.06
15007;BME280;7599;50.748;13.142;2024-01-07T03:33:51;95229.50;;;18.72;44.69
15007;BME280;7599;50.748;13.142;2024-01-07T03:37:12;95236.50;;;18.73;45.02
15007;BME280;7599;50.748;13.142;2024-01-07T03:40:37;95246.25;;;18.77;44.76
15007;BME280;7599;50.748;13.142;2024-01-07T03:43:58;95244.72;;;18.76;44.94
15007;BME280;7599;50.748;13.142;2024-01-07T03:47:32;95251.31;;;18.79;44.69
15007;BME280;7599;50.748;13.142;2024-01-07T03:54:36;95249.38;;;18.83;44.79
15007;BME280;7599;50.748;13.142;2024-01-07T03:57:46;95252.13;;;18.87;44.68
15007;BME280;7599;50.748;13.142;2024-01-07T04:01:15;95259.13;;;18.88;44.81
15007;BME280;7599;50.748;13.142;2024-01-07T04:04:49;95258.72;;;18.89;44.63
15007;BME280;7599;50.748;13.142;2024-01-07T04:08:32;95255.25;;;18.92;44.21
15007;BME280;7599;50.748;13.142;2024-01-07T04:12:13;95260.31;;;18.94;44.49
15007;BME280;7599;50.748;13.142;2024-01-07T04:15:42;95254.47;;;18.92;44.67
15007;BME280;7599;50.748;13.142;2024-01-07T04:19:32;95262.25;;;18.93;44.38
15007;BME280;7599;50.748;13.142;2024-01-07T04:23:37;95273.56;;;18.99;44.64
15007;BME280;7599;50.748;13.142;2024-01-07T04:30:48;95276.28;;;18.95;44.52
15007;BME280;7599;50.748;13.142;2024-01-07T04:37:51;95289.91;;;19.02;44.15
15007;BME280;7599;50.748;13.142;2024-01-07T04:41:28;95293.44;;;19.03;44.22
15007;BME280;7599;50.748;13.142;2024-01-07T04:44:54;95298.47;;;19.04;44.41
15007;BME280;7599;50.748;13.142;2024-01-07T04:48:10;95298.47;;;19.04;44.18
15007;BME280;7599;50.748;13.142;2024-01-07T04:51:15;95298.09;;;19.06;44.23
15007;BME280;7599;50.748;13.142;2024-01-07T04:54:29;95296.13;;;19.06;44.50
15007;BME280;7599;50.748;13.142;2024-01-07T04:57:33;95297.72;;;19.07;44.52
15007;BME280;7599;50.748;13.142;2024-01-07T05:00:52;95305.50;;;19.09;44.39
15007;BME280;7599;50.748;13.142;2024-01-07T05:04:13;95309.00;;;19.09;44.07
15007;BME280;7599;50.748;13.142;2024-01-07T05:14:10;95300.41;;;19.00;44.34
15007;BME280;7599;50.748;13.142;2024-01-07T05:17:17;95305.06;;;19.00;44.18
15007;BME280;7599;50.748;13.142;2024-01-07T05:20:19;95312.47;;;18.99;44.75
15007;BME280;7599;50.748;13.142;2024-01-07T05:23:22;95305.84;;;19.00;44.13
15007;BME280;7599;50.748;13.142;2024-01-07T05:26:25;95302.75;;;18.98;44.15
15007;BME280;7599;50.748;13.142;2024-01-07T05:29:30;95319.91;;;19.09;44.29
15007;BME280;7599;50.748;13.142;2024-01-07T05:32:57;95321.06;;;19.08;44.18
15007;BME280;7599;50.748;13.142;2024-01-07T05:36:08;95326.56;;;19.16;44.12
15007;BME280;7599;50.748;13.142;2024-01-07T05:39:11;95333.19;;;19.22;44.02
15007;BME280;7599;50.748;13.142;2024-01-07T05:42:13;95327.38;;;19.34;43.76
15007;BME280;7599;50.748;13.142;2024-01-07T05:45:17;95331.69;;;19.46;43.88
15007;BME280;7599;50.748;13.142;2024-01-07T05:48:22;95330.56;;;19.50;43.64
15007;BME280;7599;50.748;13.142;2024-01-07T05:51:25;95330.97;;;19.63;43.51
15007;BME280;7599;50.748;13.142;2024-01-07T05:54:27;95338.78;;;19.72;43.21
15007;BME280;7599;50.748;13.142;2024-01-07T05:57:32;95343.47;;;19.78;42.93
15007;BME280;7599;50.748;13.142;2024-01-07T06:00:37;95353.63;;;19.89;42.98
15007;BME280;7599;50.748;13.142;2024-01-07T06:03:40;95361.41;;;19.97;42.86
15007;BME280;7599;50.748;13.142;2024-01-07T06:06:43;95363.38;;;20.04;42.71
15007;BME280;7599;50.748;13.142;2024-01-07T06:09:52;95362.59;;;20.11;42.51
15007;BME280;7599;50.748;13.142;2024-01-07T06:12:58;95374.69;;;20.13;42.55
15007;BME280;7599;50.748;13.142;2024-01-07T06:16:03;95378.22;;;20.21;42.88
15007;BME280;7599;50.748;13.142;2024-01-07T06:19:20;95377.81;;;20.26;42.27
15007;BME280;7599;50.748;13.142;2024-01-07T06:22:26;95381.69;;;20.28;42.19
15007;BME280;7599;50.748;13.142;2024-01-07T06:25:33;95382.88;;;20.27;42.55
15007;BME280;7599;50.748;13.142;2024-01-07T06:28:49;95386.41;;;20.35;42.33
15007;BME280;7599;50.748;13.142;2024-01-07T06:31:57;95391.47;;;20.37;42.16
15007;BME280;7599;50.748;13.142;2024-01-07T06:35:08;95391.47;;;20.40;41.99
15007;BME280;7599;50.748;13.142;2024-01-07T06:38:11;95391.47;;;20.37;42.41
15007;BME280;7599;50.748;13.142;2024-01-07T06:41:14;95407.06;;;20.40;42.09
15007;BME280;7599;50.748;13.142;2024-01-07T06:44:17;95410.97;;;20.39;42.10
15007;BME280;7599;50.748;13.142;2024-01-07T06:47:21;95402.38;;;20.33;42.51
15007;BME280;7599;50.748;13.142;2024-01-07T06:50:24;95412.91;;;20.34;42.21
15007;BME280;7599;50.748;13.142;2024-01-07T06:53:26;95410.19;;;20.31;42.43
15007;BME280;7599;50.748;13.142;2024-01-07T06:56:29;95419.13;;;20.31;42.36
15007;BME280;7599;50.748;13.142;2024-01-07T06:59:32;95419.91;;;20.28;42.27
15007;BME280;7599;50.748;13.142;2024-01-07T07:02:36;95433.19;;;20.30;42.34
15007;BME280;7599;50.748;13.142;2024-01-07T07:05:39;95433.56;;;20.28;42.59
15007;BME280;7599;50.748;13.142;2024-01-07T07:08:42;95428.50;;;20.23;42.55
15007;BME280;7599;50.748;13.142;2024-01-07T07:11:45;95440.97;;;20.21;42.69
15007;BME280;7599;50.748;13.142;2024-01-07T07:14:48;95437.06;;;20.18;42.42
15007;BME280;7599;50.748;13.142;2024-01-07T07:17:52;95436.28;;;20.14;42.49
15007;BME280;7599;50.748;13.142;2024-01-07T07:20:54;95436.28;;;20.14;42.76
15007;BME280;7599;50.748;13.142;2024-01-07T07:23:57;95446.03;;;20.19;42.67
15007;BME280;7599;50.748;13.142;2024-01-07T07:26:59;95442.13;;;20.20;42.74
15007;BME280;7599;50.748;13.142;2024-01-07T07:30:05;95449.16;;;20.17;42.58
15007;BME280;7599;50.748;13.142;2024-01-07T07:33:09;95454.63;;;20.21;42.93
15007;BME280;7599;50.748;13.142;2024-01-07T07:36:18;95456.56;;;20.24;42.82
15007;BME280;7599;50.748;13.142;2024-01-07T07:39:23;95465.16;;;20.26;42.25
15007;BME280;7599;50.748;13.142;2024-01-07T07:42:32;95472.16;;;20.27;42.63
15007;BME280;7599;50.748;13.142;2024-01-07T07:45:48;95477.22;;;20.28;42.70
15007;BME280;7599;50.748;13.142;2024-01-07T07:48:57;95467.88;;;20.33;42.76
15007;BME280;7599;50.748;13.142;2024-01-07T07:52:02;95476.06;;;20.33;42.53
15007;BME280;7599;50.748;13.142;2024-01-07T07:55:35;95483.09;;;20.34;42.33
15007;BME280;7599;50.748;13.142;2024-01-07T07:59:09;95491.31;;;20.38;42.13
15007;BME280;7599;50.748;13.142;2024-01-07T08:02:23;95490.91;;;20.39;41.65
15007;BME280;7599;50.748;13.142;2024-01-07T08:05:55;95497.91;;;20.40;41.48
15007;BME280;7599;50.748;13.142;2024-01-07T08:09:18;95503.00;;;20.38;41.38
15007;BME280;7599;50.748;13.142;2024-01-07T08:12:57;95503.38;;;20.40;41.32
15007;BME280;7599;50.748;13.142;2024-01-07T08:16:44;95514.69;;;20.42;40.91
15007;BME280;7599;50.748;13.142;2024-01-07T08:37:05;95516.25;;;20.40;40.38
15007;BME280;7599;50.748;13.142;2024-01-07T08:40:16;95518.19;;;20.39;39.96
15007;BME280;7599;50.748;13.142;2024-01-07T08:43:31;95521.31;;;20.41;39.45
15007;BME280;7599;50.748;13.142;2024-01-07T08:46:34;95532.59;;;20.32;40.10
15007;BME280;7599;50.748;13.142;2024-01-07T08:49:36;95537.66;;;20.27;40.05
15007;BME280;7599;50.748;13.142;2024-01-07T08:52:42;95541.56;;;20.33;39.62
15007;BME280;7599;50.748;13.142;2024-01-07T08:55:45;95538.44;;;20.27;39.72
15007;BME280;7599;50.748;13.142;2024-01-07T08:58:48;95537.63;;;20.20;39.46
15007;BME280;7599;50.748;13.142;2024-01-07T09:01:53;95536.44;;;20.10;39.40
15007;BME280;7599;50.748;13.142;2024-01-07T09:04:56;95550.88;;;20.07;39.31
15007;BME280;7599;50.748;13.142;2024-01-07T09:08:03;95546.13;;;19.97;39.28
15007;BME280;7599;50.748;13.142;2024-01-07T09:11:10;95560.13;;;19.92;39.25
15007;BME280;7599;50.748;13.142;2024-01-07T09:14:16;95549.19;;;19.81;39.82
15007;BME280;7599;50.748;13.142;2024-01-07T09:17:19;95562.03;;;19.77;39.38
15007;BME280;7599;50.748;13.142;2024-01-07T09:20:23;95567.81;;;19.68;40.07
15007;BME280;7599;50.748;13.142;2024-01-07T09:23:28;95553.28;;;19.53;40.68
15007;BME280;7599;50.748;13.142;2024-01-07T09:26:30;95567.31;;;19.55;40.26
15007;BME280;7599;50.748;13.142;2024-01-07T09:29:33;95579.72;;;19.49;40.13
15007;BME280;7599;50.748;13.142;2024-01-07T09:32:35;95562.53;;;19.34;40.51
15007;BME280;7599;50.748;13.142;2024-01-07T09:35:39;95565.22;;;19.31;40.78
15007;BME280;7599;50.748;13.142;2024-01-07T09:38:42;95562.84;;;19.26;41.22
15007;BME280;7599;50.748;13.142;2024-01-07T09:41:45;95578.38;;;19.22;41.14
15007;BME280;7599;50.748;13.142;2024-01-07T09:44:50;95570.53;;;19.13;41.22
15007;BME280;7599;50.748;13.142;2024-01-07T09:47:53;95569.66;;;19.02;41.12
15007;BME280;7599;50.748;13.142;2024-01-07T09:50:56;95579.38;;;18.99;41.83
15007;BME280;7599;50.748;13.142;2024-01-07T09:54:03;95571.50;;;18.87;41.42
15007;BME280;7599;50.748;13.142;2024-01-07T09:57:07;95578.50;;;18.88;41.15
15007;BME280;7599;50.748;13.142;2024-01-07T10:00:13;95579.56;;;18.80;42.03
15007;BME280;7599;50.748;13.142;2024-01-07T10:03:16;95590.41;;;18.73;42.25
15007;BME280;7599;50.748;13.142;2024-01-07T10:06:20;95587.22;;;18.67;41.72
15007;BME280;7599;50.748;13.142;2024-01-07T10:09:28;95573.91;;;18.58;42.23
15007;BME280;7599;50.748;13.142;2024-01-07T10:12:31;95587.13;;;18.56;42.13
15007;BME280;7599;50.748;13.142;2024-01-07T10:15:36;95585.84;;;18.47;42.65
15007;BME280;7599;50.748;13.142;2024-01-07T10:18:38;95594.00;;;18.47;42.57
15007;BME280;7599;50.748;13.142;2024-01-07T10:21:41;95599.78;;;18.42;42.70
15007;BME280;7599;50.748;13.142;2024-01-07T10:24:46;95591.13;;;18.32;42.57
15007;BME280;7599;50.748;13.142;2024-01-07T10:27:50;95587.59;;;18.28;42.58
15007;BME280;7599;50.748;13.142;2024-01-07T10:30:53;95595.72;;;18.25;42.47
15007;BME280;7599;50.748;13.142;2024-01-07T10:33:56;95603.44;;;18.23;43.09
15007;BME280;7599;50.748;13.142;2024-01-07T10:37:00;95604.56;;;18.18;43.15
15007;BME280;7599;50.748;13.142;2024-01-07T10:40:07;95604.50;;;18.15;43.27
15007;BME280;7599;50.748;13.142;2024-01-07T10:43:10;95601.34;;;18.09;43.09
15007;BME280;7599;50.748;13.142;2024-01-07T10:46:13;95599.34;;;18.02;43.05
15007;BME280;7599;50.748;13.142;2024-01-07T10:49:20;95608.22;;;17.99;43.56
15007;BME280;7599;50.748;13.142;2024-01-07T10:52:23;95612.09;;;17.98;42.85
15007;BME280;7599;50.748;13.142;2024-01-07T10:55:30;95606.56;;;17.91;43.17
15007;BME280;7599;50.748;13.142;2024-01-07T10:58:36;95606.13;;;17.89;43.61
15007;BME280;7599;50.748;13.142;2024-01-07T11:01:39;95614.25;;;17.86;43.13
15007;BME280;7599;50.748;13.142;2024-01-07T11:04:46;95604.06;;;17.79;43.24
15007;BME280;7599;50.748;13.142;2024-01-07T11:07:56;95614.16;;;17.78;43.56
15007;BME280;7599;50.748;13.142;2024-01-07T11:11:06;95614.09;;;17.75;43.46
15007;BME280;7599;50.748;13.142;2024-01-07T11:14:33;95612.88;;;17.72;43.26
15007;BME280;7599;50.748;13.142;2024-01-07T11:17:42;95616.34;;;17.69;43.73
15007;BME280;7599;50.748;13.142;2024-01-07T11:20:48;95615.13;;;17.67;43.66
15007;BME280;7599;50.748;13.142;2024-01-07T11:23:52;95615.44;;;17.62;43.26
15007;BME280;7599;50.748;13.142;2024-01-07T11:27:01;95613.44;;;17.58;43.93
15007;BME280;7599;50.748;13.142;2024-01-07T11:30:06;95616.16;;;17.58;43.52
15007;BME280;7599;50.748;13.142;2024-01-07T11:33:11;95620.78;;;17.54;43.70
15007;BME280;7599;50.748;13.142;2024-01-07T11:36:15;95620.66;;;17.47;43.67
15007;BME280;7599;50.748;13.142;2024-01-07T11:39:19;95633.09;;;17.48;43.94
15007;BME280;7599;50.748;13.142;2024-01-07T11:42:23;95629.97;;;17.46;43.56
15007;BME280;7599;50.748;13.142;2024-01-07T11:45:25;95634.19;;;17.44;44.02
15007;BME280;7599;50.748;13.142;2024-01-07T11:48:28;95630.63;;;17.40;43.51
15007;BME280;7599;50.748;13.142;2024-01-07T11:51:32;95632.44;;;17.32;43.86
15007;BME280;7599;50.748;13.142;2024-01-07T11:54:36;95633.22;;;17.32;43.73
15007;BME280;7599;50.748;13.142;2024-01-07T11:57:41;95640.59;;;17.32;43.89
15007;BME280;7599;50.748;13.142;2024-01-07T12:00:44;95644.41;;;17.27;43.80
15007;BME280;7599;50.748;13.142;2024-01-07T12:03:47;95634.63;;;17.23;44.10
15007;BME280;7599;50.748;13.142;2024-01-07T12:06:58;95649.44;;;17.25;44.17
15007;BME280;7599;50.748;13.142;2024-01-07T12:10:03;95648.59;;;17.21;43.96
15007;BME280;7599;50.748;13.142;2024-01-07T12:13:13;95650.09;;;17.19;44.11
15007;BME280;7599;50.748;13.142;2024-01-07T12:16:16;95658.59;;;17.17;43.98
15007;BME280;7599;50.748;13.142;2024-01-07T12:19:19;95663.59;;;17.15;44.16
15007;BME280;7599;50.748;13.142;2024-01-07T12:22:24;95651.06;;;17.07;43.90
15007;BME280;7599;50.748;13.142;2024-01-07T12:25:29;95647.06;;;17.01;44.44
15007;BME280;7599;50.748;13.142;2024-01-07T12:28:34;95659.56;;;17.05;44.57
15007;BME280;7599;50.748;13.142;2024-01-07T12:31:37;95666.53;;;17.03;44.11
15007;BME280;7599;50.748;13.142;2024-01-07T12:34:42;95670.81;;;17.04;44.36
15007;BME280;7599;50.748;13.142;2024-01-07T12:37:47;95671.16;;;17.02;43.89
15007;BME280;7599;50.748;13.142;2024-01-07T12:40:50;95674.97;;;16.98;44.61
15007;BME280;7599;50.748;13.142;2024-01-07T12:43:54;95676.09;;;16.97;44.29
15007;BME280;7599;50.748;13.142;2024-01-07T12:46:57;95672.50;;;16.89;44.49
15007;BME280;7599;50.748;13.142;2024-01-07T12:50:00;95680.34;;;16.94;44.13
15007;BME280;7599;50.748;13.142;2024-01-07T12:53:03;95678.69;;;16.90;44.31
15007;BME280;7599;50.748;13.142;2024-01-07T12:56:06;95670.81;;;16.84;44.31
15007;BME280;7599;50.748;13.142;2024-01-07T12:59:11;95682.13;;;16.87;44.47
15007;BME280;7599;50.748;13.142;2024-01-07T13:02:13;95686.00;;;16.86;44.26
15007;BME280;7599;50.748;13.142;2024-01-07T13:05:16;95680.41;;;16.78;44.31
15007;BME280;7599;50.748;13.142;2024-01-07T13:08:20;95697.94;;;16.81;44.50
15007;BME280;7599;50.748;13.142;2024-01-07T13:11:24;95692.84;;;16.79;44.35
15007;BME280;7599;50.748;13.142;2024-01-07T13:14:28;95697.06;;;16.77;44.58
15007;BME280;7599;50.748;13.142;2024-01-07T13:17:31;95695.06;;;16.74;44.86
15007;BME280;7599;50.748;13.142;2024-01-07T13:20:34;95698.03;;;16.69;44.56
15007;BME280;7599;50.748;13.142;2024-01-07T13:23:39;95698.03;;;16.69;44.50
15007;BME280;7599;50.748;13.142;2024-01-07T13:26:45;95721.69;;;16.68;44.78
15007;BME280;7599;50.748;13.142;2024-01-07T13:29:49;95724.41;;;16.68;44.48
15007;BME280;7599;50.748;13.142;2024-01-07T13:32:56;95716.19;;;16.65;44.22
15007;BME280;7599;50.748;13.142;2024-01-07T13:36:14;95712.63;;;16.61;44.55
15007;BME280;7599;50.748;13.142;2024-01-07T13:39:23;95713.69;;;16.56;44.81
15007;BME280;7599;50.748;13.142;2024-01-07T13:42:29;95722.31;;;16.62;44.71
15007;BME280;7599;50.748;13.142;2024-01-07T13:45:36;95722.69;;;16.60;44.87
15007;BME280;7599;50.748;13.142;2024-01-07T13:48:39;95720.69;;;16.57;44.91
15007;BME280;7599;50.748;13.142;2024-01-07T13:51:44;95727.63;;;16.54;44.60
15007;BME280;7599;50.748;13.142;2024-01-07T13:54:47;95723.31;;;16.53;44.86
15007;BME280;7599;50.748;13.142;2024-01-07T13:57:50;95734.44;;;16.48;44.78
15007;BME280;7599;50.748;13.142;2024-01-07T14:00:54;95736.38;;;16.48;44.56
15007;BME280;7599;50.748;13.142;2024-01-07T14:03:57;95739.00;;;16.44;44.69
15007;BME280;7599;50.748;13.142;2024-01-07T14:07:00;95737.44;;;16.43;44.55
15007;BME280;7599;50.748;13.142;2024-01-07T14:10:03;95743.25;;;16.42;44.99
15007;BME280;7599;50.748;13.142;2024-01-07T14:13:07;95742.78;;;16.40;44.99
15007;BME280;7599;50.748;13.142;2024-01-07T14:16:12;95742.66;;;16.32;44.92
15007;BME280;7599;50.748;13.142;2024-01-07T14:19:14;95741.06;;;16.31;44.61
15007;BME280;7599;50.748;13.142;2024-01-07T14:22:18;95742.22;;;16.30;45.08
15007;BME280;7599;50.748;13.142;2024-01-07T14:25:22;95742.56;;;16.29;44.52
15007;BME280;7599;50.748;13.142;2024-01-07T14:28:24;95748.41;;;16.31;44.45
15007;BME280;7599;50.748;13.142;2024-01-07T14:31:28;95753.44;;;16.29;45.11
15007;BME280;7599;50.748;13.142;2024-01-07T14:34:31;95755.59;;;16.23;45.15
15007;BME280;7599;50.748;13.142;2024-01-07T14:37:34;95746.34;;;16.24;44.68
15007;BME280;7599;50.748;13.142;2024-01-07T14:40:37;95753.72;;;16.24;44.74
15007;BME280;7599;50.748;13.142;2024-01-07T14:43:42;95756.34;;;16.20;45.26
15007;BME280;7599;50.748;13.142;2024-01-07T14:46:46;95764.47;;;16.20;44.61
15007;BME280;7599;50.748;13.142;2024-01-07T14:49:49;95756.25;;;16.17;44.80
15007;BME280;7599;50.748;13.142;2024-01-07T14:52:51;95758.19;;;16.16;45.14
15007;BME280;7599;50.748;13.142;2024-01-07T14:55:54;95763.16;;;16.14;44.73
15007;BME280;7599;50.748;13.142;2024-01-07T14:58:58;95772.44;;;16.13;44.86
15007;BME280;7599;50.748;13.142;2024-01-07T15:02:03;95770.09;;;16.12;45.25
15007;BME280;7599;50.748;13.142;2024-01-07T15:05:07;95771.94;;;16.07;45.05
15007;BME280;7599;50.748;13.142;2024-01-07T15:08:10;95778.50;;;16.06;44.71
15007;BME280;7599;50.748;13.142;2024-01-07T15:11:14;95785.03;;;16.05;45.39
15007;BME280;7599;50.748;13.142;2024-01-07T15:14:18;95786.19;;;16.04;44.95
15007;BME280;7599;50.748;13.142;2024-01-07T15:17:22;95782.22;;;16.02;45.37
15007;BME280;7599;50.748;13.142;2024-01-07T15:20:26;95785.66;;;15.99;45.01
15007;BME280;7599;50.748;13.142;2024-01-07T15:23:28;95799.56;;;15.97;45.04
15007;BME280;7599;50.748;13.142;2024-01-07T15:26:31;95793.13;;;15.86;45.35
15007;BME280;7599;50.748;13.142;2024-01-07T15:29:36;95797.47;;;15.91;45.26
15007;BME280;7599;50.748;13.142;2024-01-07T15:32:39;95802.91;;;15.91;44.94
15007;BME280;7599;50.748;13.142;2024-01-07T15:35:42;95807.88;;;15.89;45.41
15007;BME280;7599;50.748;13.142;2024-01-07T15:38:44;95798.94;;;15.88;45.23
15007;BME280;7599;50.748;13.142;2024-01-07T15:41:47;95803.16;;;15.86;45.50
15007;BME280;7599;50.748;13.142;2024-01-07T15:44:49;95810.84;;;15.83;45.22
15007;BME280;7599;50.748;13.142;2024-01-07T15:47:53;95819.34;;;15.82;45.50
15007;BME280;7599;50.748;13.142;2024-01-07T15:50:56;95809.88;;;15.76;45.42
15007;BME280;7599;50.748;13.142;2024-01-07T15:53:59;95813.41;;;15.76;45.19
15007;BME280;7599;50.748;13.142;2024-01-07T15:57:01;95815.28;;;15.76;45.37
15007;BME280;7599;50.748;13.142;2024-01-07T16:00:08;95830.00;;;15.75;45.47
15007;BME280;7599;50.748;13.142;2024-01-07T16:03:12;95824.16;;;15.73;45.54
15007;BME280;7599;50.748;13.142;2024-01-07T16:06:15;95830.72;;;15.72;45.17
15007;BME280;7599;50.748;13.142;2024-01-07T16:09:17;95834.09;;;15.69;45.39
15007;BME280;7599;50.748;13.142;2024-01-07T16:12:20;95837.19;;;15.67;45.44
15007;BME280;7599;50.748;13.142;2024-01-07T16:15:22;95840.56;;;15.64;45.19
15007;BME280;7599;50.748;13.142;2024-01-07T16:18:26;95850.59;;;15.64;45.52
15007;BME280;7599;50.748;13.142;2024-01-07T16:21:29;95839.31;;;15.62;45.33
15007;BME280;7599;50.748;13.142;2024-01-07T16:24:31;95845.84;;;15.61;45.43
15007;BME280;7599;50.748;13.142;2024-01-07T16:27:41;95845.44;;;15.58;45.10
15007;BME280;7599;50.748;13.142;2024-01-07T16:30:43;95844.63;;;15.58;45.40
15007;BME280;7599;50.748;13.142;2024-01-07T16:33:48;95846.91;;;15.56;45.64
15007;BME280;7599;50.748;13.142;2024-01-07T16:36:50;95842.97;;;15.53;45.11
15007;BME280;7599;50.748;13.142;2024-01-07T16:39:54;95841.38;;;15.52;45.04
15007;BME280;7599;50.748;13.142;2024-01-07T16:42:57;95841.28;;;15.49;45.33
15007;BME280;7599;50.748;13.142;2024-01-07T16:46:00;95842.06;;;15.49;45.62
15007;BME280;7599;50.748;13.142;2024-01-07T16:49:04;95843.22;;;15.48;45.24
15007;BME280;7599;50.748;13.142;2024-01-07T16:52:11;95841.19;;;15.45;45.20
15007;BME280;7599;50.748;13.142;2024-01-07T16:55:14;95839.28;;;15.46;45.15
15007;BME280;7599;50.748;13.142;2024-01-07T16:58:16;95841.56;;;15.44;45.60
15007;BME280;7599;50.748;13.142;2024-01-07T17:01:19;95859.72;;;15.43;45.04
15007;BME280;7599;50.748;13.142;2024-01-07T17:04:25;95856.13;;;15.39;45.27
15007;BME280;7599;50.748;13.142;2024-01-07T17:07:28;95853.41;;;15.39;45.59
15007;BME280;7599;50.748;13.142;2024-01-07T17:10:31;95857.28;;;15.38;45.56
15007;BME280;7599;50.748;13.142;2024-01-07T17:13:34;95857.16;;;15.34;45.34
15007;BME280;7599;50.748;13.142;2024-01-07T17:16:38;95866.44;;;15.33;45.58
15007;BME280;7599;50.748;13.142;2024-01-07T17:19:42;95865.19;;;15.31;45.15